createdAt,value
2023-03-07T00:01:27.901Z,70.58
2023-03-07T00:03:55.673Z,70.88
2023-03-07T00:06:23.261Z,70.65
2023-03-07T00:08:57.071Z,71.03
2023-03-07T00:11:24.611Z,70.50
2023-03-07T00:13:52.337Z,70.42
2023-03-07T00:16:23.268Z,70.33
2023-03-07T00:18:54.313Z,70.14
2023-03-07T00:21:22.690Z,69.87
2023-03-07T00:23:52.970Z,69.58
2023-03-07T00:26:25.930Z,69.65
2023-03-07T00:28:55.078Z,69.40
2023-03-07T00:31:24.207Z,69.45
2023-03-07T00:33:51.291Z,69.24
2023-03-07T00:36:22.384Z,69.41
2023-03-07T00:38:52.854Z,69.28
2023-03-07T00:41:26.804Z,69.32
2023-03-07T00:43:55.383Z,69.44
2023-03-07T00:46:25.251Z,69.19
2023-03-07T00:48:53.161Z,69.12
2023-03-07T00:51:22.631Z,68.96
2023-03-07T00:53:50.851Z,68.87
2023-03-07T00:56:25.983Z,68.99
2023-03-07T00:58:53.566Z,69.27
2023-03-07T01:01:25.189Z,68.82
2023-03-07T01:03:53.713Z,68.76
2023-03-07T01:06:28.261Z,68.68
2023-03-07T01:08:58.859Z,68.80
2023-03-07T01:11:28.134Z,68.43
2023-03-07T01:14:01.522Z,67.96
2023-03-07T01:16:35.891Z,67.81
2023-03-07T01:19:07.537Z,67.70
2023-03-07T01:21:38.880Z,67.60
2023-03-07T01:24:10.160Z,67.70
2023-03-07T01:26:37.499Z,67.73
2023-03-07T01:29:06.486Z,68.09
2023-03-07T01:31:33.463Z,68.05
2023-03-07T01:34:02.146Z,68.55
2023-03-07T01:36:34.627Z,69.28
2023-03-07T01:39:27.859Z,69.49
2023-03-07T01:41:54.715Z,69.98
2023-03-07T01:44:25.879Z,70.50
2023-03-07T01:46:58.543Z,71.01
2023-03-07T01:49:36.162Z,71.26
2023-03-07T01:52:23.965Z,72.08
2023-03-07T01:54:57.299Z,72.88
2023-03-07T01:57:32.388Z,73.55
2023-03-07T02:00:08.287Z,74.43
2023-03-07T02:02:38.057Z,75.25
2023-03-07T02:05:23.839Z,76.20
2023-03-07T02:07:53.901Z,76.91
2023-03-07T02:10:23.350Z,77.78
2023-03-07T02:12:53.718Z,78.19
2023-03-07T02:15:23.248Z,79.11
2023-03-07T02:17:51.527Z,80.08
2023-03-07T02:21:14.278Z,81.03
2023-03-07T02:24:11.568Z,81.67
2023-03-07T02:26:54.214Z,82.55
2023-03-07T02:29:22.214Z,83.00
2023-03-07T02:31:49.306Z,83.79
2023-03-07T02:34:25.241Z,83.90
2023-03-07T02:37:01.878Z,84.24
2023-03-07T02:39:32.466Z,84.61
2023-03-07T02:42:06.837Z,84.61
2023-03-07T02:44:33.635Z,84.60
2023-03-07T02:47:00.537Z,84.68
2023-03-07T02:49:27.344Z,84.82
2023-03-07T02:51:57.672Z,84.74
2023-03-07T02:54:25.323Z,84.52
2023-03-07T02:56:53.860Z,84.33
2023-03-07T02:59:20.762Z,84.57
2023-03-07T03:01:50.869Z,84.48
2023-03-07T03:04:18.407Z,84.79
2023-03-07T03:06:45.260Z,84.55
2023-03-07T03:09:12.035Z,84.25
2023-03-07T03:11:38.931Z,84.08
2023-03-07T03:14:05.785Z,83.63
2023-03-07T03:16:32.601Z,83.36
2023-03-07T03:19:00.224Z,82.96
2023-03-07T03:21:27.238Z,82.65
2023-03-07T03:23:53.971Z,82.50
2023-03-07T03:26:21.167Z,81.96
2023-03-07T03:28:48.061Z,81.89
2023-03-07T03:31:15.436Z,82.10
2023-03-07T03:33:44.197Z,82.46
2023-03-07T03:36:16.630Z,82.82
2023-03-07T03:38:44.058Z,83.58
2023-03-07T03:41:15.988Z,84.25
2023-03-07T03:43:43.079Z,85.19
2023-03-07T03:46:10.300Z,85.93
2023-03-07T03:48:37.170Z,85.55
2023-03-07T03:51:07.968Z,86.95
2023-03-07T03:53:37.313Z,86.62
2023-03-07T03:56:14.013Z,88.29
2023-03-07T03:58:42.262Z,88.35
2023-03-07T04:01:12.371Z,89.54
2023-03-07T04:03:47.080Z,90.26
2023-03-07T04:06:22.096Z,90.92
2023-03-07T04:08:49.824Z,91.16
2023-03-07T04:11:17.473Z,90.86
2023-03-07T04:13:44.342Z,91.57
2023-03-07T04:16:12.076Z,91.68
2023-03-07T04:18:40.032Z,92.27
2023-03-07T04:21:07.713Z,93.29
2023-03-07T04:23:34.923Z,92.71
2023-03-07T04:26:05.063Z,92.71
2023-03-07T04:28:45.441Z,92.09
2023-03-07T04:31:23.065Z,93.07
2023-03-07T04:33:51.690Z,93.09
2023-03-07T04:36:20.094Z,92.40
2023-03-07T04:38:49.320Z,92.36
2023-03-07T04:41:20.604Z,92.02
2023-03-07T04:43:47.943Z,91.63
2023-03-07T04:46:18.208Z,92.13
2023-03-07T04:48:46.503Z,92.52
2023-03-07T04:51:13.986Z,92.08
2023-03-07T04:53:41.059Z,92.30
2023-03-07T04:56:10.163Z,92.08
2023-03-07T04:58:37.884Z,91.12
2023-03-07T05:01:05.728Z,90.87
2023-03-07T05:03:33.516Z,90.24
2023-03-07T05:06:12.744Z,89.49
2023-03-07T05:08:39.669Z,89.60
2023-03-07T05:11:06.679Z,88.65
2023-03-07T05:13:33.676Z,88.17
2023-03-07T05:16:01.319Z,88.00
2023-03-07T05:18:28.911Z,87.53
2023-03-07T05:20:55.881Z,87.30
2023-03-07T05:23:23.035Z,87.41
2023-03-07T05:25:50.628Z,86.88
2023-03-07T05:28:18.968Z,86.19
2023-03-07T05:30:46.674Z,86.04
2023-03-07T05:33:14.864Z,85.43
2023-03-07T05:35:41.825Z,85.51
2023-03-07T05:38:09.386Z,85.25
2023-03-07T05:40:36.371Z,84.92
2023-03-07T05:43:03.619Z,83.98
2023-03-07T05:45:30.415Z,84.07
2023-03-07T05:47:57.344Z,83.84
2023-03-07T05:50:24.209Z,83.18
2023-03-07T05:52:53.052Z,83.10
2023-03-07T05:55:20.170Z,82.84
2023-03-07T05:57:47.050Z,82.79
2023-03-07T06:00:15.971Z,82.42
2023-03-07T06:02:45.203Z,81.85
2023-03-07T06:05:12.046Z,81.68
2023-03-07T06:07:38.905Z,81.52
2023-03-07T06:10:07.555Z,81.67
2023-03-07T06:12:34.449Z,81.29
2023-03-07T06:15:01.299Z,80.75
2023-03-07T06:17:28.234Z,80.41
2023-03-07T06:19:55.174Z,80.39
2023-03-07T06:22:22.108Z,79.79
2023-03-07T06:24:48.906Z,79.60
2023-03-07T06:27:15.819Z,79.67
2023-03-07T06:29:42.917Z,79.60
2023-03-07T06:32:09.740Z,79.80
2023-03-07T06:34:37.637Z,78.91
2023-03-07T06:37:04.759Z,78.54
2023-03-07T06:39:31.846Z,78.75
2023-03-07T06:41:58.866Z,78.58
2023-03-07T06:44:25.711Z,78.11
2023-03-07T06:46:52.506Z,78.11
2023-03-07T06:49:19.283Z,77.64
2023-03-07T06:51:46.040Z,77.21
2023-03-07T06:54:14.955Z,77.15
2023-03-07T06:56:45.331Z,76.60
2023-03-07T06:59:14.523Z,76.24
2023-03-07T07:01:41.340Z,75.12
2023-03-07T07:04:08.156Z,75.14
2023-03-07T07:06:35.050Z,75.43
2023-03-07T07:09:05.390Z,74.86
2023-03-07T07:11:32.313Z,74.70
2023-03-07T07:13:59.184Z,73.93
2023-03-07T07:16:26.033Z,74.63
2023-03-07T07:18:53.114Z,73.63
2023-03-07T07:21:20.130Z,73.50
2023-03-07T07:23:47.064Z,73.18
2023-03-07T07:26:14.061Z,73.49
2023-03-07T07:28:40.880Z,73.39
2023-03-07T07:31:07.809Z,73.21
2023-03-07T07:33:34.860Z,72.70
2023-03-07T07:36:01.677Z,72.12
2023-03-07T07:38:28.529Z,71.58
2023-03-07T07:40:56.222Z,71.28
2023-03-07T07:43:23.109Z,71.03
2023-03-07T07:45:50.027Z,70.21
2023-03-07T07:48:16.946Z,70.27
2023-03-07T07:50:43.851Z,70.33
2023-03-07T07:53:10.751Z,68.87
2023-03-07T07:55:37.646Z,68.87
2023-03-07T07:58:05.019Z,68.48
2023-03-07T08:00:32.684Z,68.16
2023-03-07T08:03:00.129Z,67.85
2023-03-07T08:05:27.144Z,67.37
2023-03-07T08:07:54.034Z,67.37
2023-03-07T08:10:21.752Z,66.32
2023-03-07T08:12:53.397Z,66.07
2023-03-07T08:15:23.954Z,65.34
2023-03-07T08:17:52.319Z,65.40
2023-03-07T08:20:22.240Z,65.79
2023-03-07T08:22:50.706Z,64.75
2023-03-07T08:25:22.767Z,64.61
2023-03-07T08:27:55.321Z,65.33
2023-03-07T08:30:25.958Z,65.21
2023-03-07T08:32:55.084Z,64.36
2023-03-07T08:35:23.141Z,63.88
2023-03-07T08:38:00.910Z,63.39
2023-03-07T08:40:30.316Z,62.83
2023-03-07T08:43:01.126Z,63.18
2023-03-07T08:45:28.024Z,62.94
2023-03-07T08:47:56.221Z,62.33
2023-03-07T08:50:27.211Z,61.90
2023-03-07T08:52:54.349Z,61.81
2023-03-07T08:55:21.397Z,61.98
2023-03-07T08:57:48.425Z,62.09
2023-03-07T09:00:15.945Z,61.55
2023-03-07T09:02:43.096Z,61.56
2023-03-07T09:05:10.802Z,61.08
2023-03-07T09:07:37.915Z,61.30
2023-03-07T09:10:05.999Z,62.37
2023-03-07T09:12:34.657Z,60.93
2023-03-07T09:15:01.524Z,61.03
2023-03-07T09:17:30.327Z,60.50
2023-03-07T09:19:57.146Z,59.78
2023-03-07T09:22:23.919Z,59.42
2023-03-07T09:24:50.791Z,59.70
2023-03-07T09:27:17.623Z,59.61
2023-03-07T09:29:44.945Z,59.05
2023-03-07T09:32:11.913Z,58.83
2023-03-07T09:34:38.943Z,58.65
2023-03-07T09:37:05.743Z,58.42
2023-03-07T09:39:32.637Z,58.26
2023-03-07T09:42:34.323Z,57.55
2023-03-07T09:45:14.973Z,56.08
2023-03-07T09:47:59.084Z,56.44
2023-03-07T09:50:52.882Z,56.36
2023-03-07T09:53:48.364Z,56.41
2023-03-07T09:56:38.250Z,57.06
2023-03-07T09:59:32.719Z,55.63
2023-03-07T10:02:40.845Z,54.93
2023-03-07T10:05:36.779Z,55.52
2023-03-07T10:08:05.376Z,55.42
2023-03-07T10:11:01.635Z,54.54
2023-03-07T10:14:06.607Z,53.58
2023-03-07T10:16:54.664Z,54.54
2023-03-07T10:20:12.600Z,53.23
2023-03-07T10:22:58.871Z,53.37
2023-03-07T10:25:40.762Z,52.83
2023-03-07T10:28:42.616Z,52.61
2023-03-07T10:31:36.237Z,52.66
2023-03-07T10:34:26.377Z,52.59
2023-03-07T10:37:11.484Z,54.86
2023-03-07T10:39:56.784Z,53.06
2023-03-07T10:42:36.778Z,52.21
2023-03-07T10:45:05.204Z,53.88
2023-03-07T10:47:32.115Z,51.35
2023-03-07T10:50:38.396Z,51.44
2023-03-07T10:53:21.726Z,51.38
2023-03-07T10:55:48.981Z,51.25
2023-03-07T10:58:22.984Z,51.52
2023-03-07T11:00:58.959Z,51.45
2023-03-07T11:03:52.176Z,51.18
2023-03-07T11:06:52.182Z,51.67
2023-03-07T11:09:48.399Z,50.97
2023-03-07T11:12:21.618Z,51.40
2023-03-07T11:14:52.391Z,51.33
2023-03-07T11:17:44.927Z,51.17
2023-03-07T11:20:49.705Z,51.16
2023-03-07T11:23:27.854Z,51.28
2023-03-07T11:25:57.888Z,51.01
2023-03-07T11:28:35.844Z,50.78
2023-03-07T11:31:31.772Z,50.70
2023-03-07T11:34:22.646Z,50.34
2023-03-07T11:36:59.605Z,49.67
2023-03-07T11:40:19.532Z,49.68
2023-03-07T11:43:00.955Z,49.60
2023-03-07T11:46:01.339Z,49.15
2023-03-07T11:49:35.275Z,49.03
2023-03-07T11:52:45.231Z,48.22
2023-03-07T11:55:26.565Z,48.25
2023-03-07T11:58:24.204Z,48.45
2023-03-07T12:01:14.252Z,48.16
2023-03-07T12:04:13.829Z,48.15
2023-03-07T12:07:04.771Z,47.25
2023-03-07T12:10:05.271Z,47.68
2023-03-07T12:13:28.954Z,46.79
2023-03-07T12:16:28.185Z,46.93
2023-03-07T12:19:13.218Z,46.11
2023-03-07T12:22:10.678Z,46.27
2023-03-07T12:25:03.482Z,46.13
2023-03-07T12:27:50.325Z,45.55
2023-03-07T12:30:30.530Z,45.34
2023-03-07T12:32:58.745Z,44.86
2023-03-07T12:35:45.291Z,44.33
2023-03-07T12:39:06.246Z,42.90
2023-03-07T12:42:15.329Z,41.43
2023-03-07T12:44:53.557Z,41.22
2023-03-07T12:47:32.538Z,39.18
2023-03-07T12:50:22.572Z,37.95
2023-03-07T12:53:13.735Z,35.37
2023-03-07T12:55:54.691Z,34.53
2023-03-07T12:58:47.096Z,34.13
2023-03-07T13:01:49.397Z,33.05
2023-03-07T13:04:34.116Z,33.17
2023-03-07T13:07:26.963Z,33.46
2023-03-07T13:09:58.478Z,32.62
2023-03-07T13:12:29.507Z,32.75
2023-03-07T13:15:46.617Z,33.09
2023-03-07T13:18:30.135Z,32.33
2023-03-07T13:21:32.711Z,33.85
2023-03-07T13:24:39.969Z,33.98
2023-03-07T13:27:20.735Z,33.36
2023-03-07T13:30:12.531Z,33.75
2023-03-07T13:32:49.221Z,33.31
2023-03-07T13:35:30.826Z,32.68
2023-03-07T13:37:58.513Z,33.54
2023-03-07T13:40:43.614Z,33.80
2023-03-07T13:43:24.192Z,33.92
2023-03-07T13:46:05.883Z,33.66
2023-03-07T13:48:32.675Z,34.85
2023-03-07T13:51:00.309Z,34.29
2023-03-07T13:53:33.436Z,33.20
2023-03-07T13:56:26.568Z,33.99
2023-03-07T13:59:09.909Z,34.08
2023-03-07T14:01:42.383Z,33.49
2023-03-07T14:04:39.583Z,33.13
2023-03-07T14:07:29.696Z,33.26
2023-03-07T14:10:22.266Z,33.20
2023-03-07T14:13:29.517Z,35.73
2023-03-07T14:16:21.764Z,34.70
2023-03-07T14:19:08.346Z,35.89
2023-03-07T14:22:10.939Z,36.46
2023-03-07T14:25:07.531Z,37.00
2023-03-07T14:27:57.657Z,37.25
2023-03-07T14:30:33.107Z,36.44
2023-03-07T14:33:01.425Z,37.02
2023-03-07T14:35:45.296Z,37.89
2023-03-07T14:38:24.571Z,39.15
2023-03-07T14:41:25.799Z,40.42
2023-03-07T14:44:06.053Z,41.79
2023-03-07T14:46:45.932Z,42.28
2023-03-07T14:49:42.260Z,42.37
2023-03-07T14:52:28.284Z,42.80
2023-03-07T14:55:03.059Z,43.49
2023-03-07T14:57:34.563Z,44.26
2023-03-07T15:00:23.042Z,45.11
2023-03-07T15:03:08.285Z,45.25
2023-03-07T15:05:51.072Z,45.16
2023-03-07T15:08:25.583Z,46.21
2023-03-07T15:11:17.762Z,46.54
2023-03-07T15:13:57.087Z,46.86
2023-03-07T15:16:37.197Z,47.03
2023-03-07T15:19:24.343Z,47.57
2023-03-07T15:22:03.703Z,48.24
2023-03-07T15:24:37.064Z,48.47
2023-03-07T15:27:07.827Z,48.47
2023-03-07T15:29:34.800Z,48.74
2023-03-07T15:32:27.145Z,48.68
2023-03-07T15:35:10.948Z,49.32
2023-03-07T15:37:59.937Z,49.07
2023-03-07T15:40:35.982Z,48.71
2023-03-07T15:43:04.422Z,48.09
2023-03-07T15:45:39.588Z,48.39
2023-03-07T15:48:26.888Z,48.91
2023-03-07T15:50:58.744Z,49.09
2023-03-07T15:53:37.554Z,49.00
2023-03-07T15:56:21.051Z,49.06
2023-03-07T15:58:48.820Z,48.83
2023-03-07T16:01:21.993Z,49.01
2023-03-07T16:03:58.858Z,49.21
2023-03-07T16:06:46.055Z,49.42
2023-03-07T16:09:18.281Z,49.60
2023-03-07T16:11:46.758Z,49.29
2023-03-07T16:14:32.608Z,49.31
2023-03-07T16:17:03.741Z,49.43
2023-03-07T16:19:31.161Z,49.27
2023-03-07T16:21:58.041Z,49.40
2023-03-07T16:24:24.959Z,49.37
2023-03-07T16:26:52.573Z,49.53
2023-03-07T16:29:23.123Z,49.67
2023-03-07T16:31:49.978Z,49.85
2023-03-07T16:34:21.570Z,49.84
2023-03-07T16:36:48.647Z,50.11
2023-03-07T16:39:16.004Z,50.31
2023-03-07T16:41:47.860Z,50.39
2023-03-07T16:44:18.154Z,50.68
2023-03-07T16:46:53.174Z,50.79
2023-03-07T16:49:21.112Z,50.81
2023-03-07T16:52:03.033Z,50.72
2023-03-07T16:54:32.401Z,50.60
2023-03-07T16:57:01.268Z,50.93
2023-03-07T16:59:35.534Z,51.29
2023-03-07T17:02:13.060Z,51.15
2023-03-07T17:04:39.840Z,51.09
2023-03-07T17:07:23.414Z,51.31
2023-03-07T17:09:50.508Z,51.18
2023-03-07T17:12:22.638Z,51.36
2023-03-07T17:14:49.764Z,51.69
2023-03-07T17:17:30.423Z,51.65
2023-03-07T17:19:57.258Z,51.62
2023-03-07T17:22:24.016Z,52.06
2023-03-07T17:24:51.740Z,52.29
2023-03-07T17:27:19.915Z,52.07
2023-03-07T17:29:54.687Z,52.04
2023-03-07T17:32:22.386Z,51.81
2023-03-07T17:34:49.209Z,52.15
2023-03-07T17:37:16.362Z,52.27
2023-03-07T17:39:43.645Z,52.07
2023-03-07T17:42:10.464Z,52.35
2023-03-07T17:44:37.527Z,52.34
2023-03-07T17:47:04.526Z,52.16
2023-03-07T17:49:40.675Z,52.41
2023-03-07T17:52:07.996Z,52.21
2023-03-07T17:54:35.188Z,52.39
2023-03-07T17:57:02.784Z,52.29
2023-03-07T17:59:32.500Z,52.30
2023-03-07T18:01:59.646Z,52.10
2023-03-07T18:04:28.516Z,51.89
2023-03-07T18:06:55.349Z,51.73
2023-03-07T18:09:23.270Z,51.69
2023-03-07T18:11:50.051Z,51.73
2023-03-07T18:14:17.467Z,51.83
2023-03-07T18:16:44.792Z,51.91
2023-03-07T18:19:25.265Z,52.14
2023-03-07T18:21:53.349Z,51.86
2023-03-07T18:24:30.360Z,51.85
2023-03-07T18:27:02.361Z,52.27
2023-03-07T18:29:29.771Z,52.04
2023-03-07T18:31:56.969Z,52.57
2023-03-07T18:34:24.874Z,51.76
2023-03-07T18:36:54.094Z,52.00
2023-03-07T18:39:23.499Z,52.10
2023-03-07T18:41:51.459Z,52.25
2023-03-07T18:44:19.606Z,52.08
2023-03-07T18:46:47.099Z,51.85
2023-03-07T18:49:16.175Z,51.93
2023-03-07T18:51:45.708Z,51.94
2023-03-07T18:54:14.274Z,51.76
2023-03-07T18:56:44.353Z,51.99
2023-03-07T18:59:11.387Z,51.72
2023-03-07T19:01:39.718Z,51.82
2023-03-07T19:04:07.611Z,51.82
2023-03-07T19:06:41.400Z,51.90
2023-03-07T19:09:15.373Z,51.81
2023-03-07T19:11:42.937Z,51.66
2023-03-07T19:14:09.926Z,51.59
2023-03-07T19:16:36.939Z,51.46
2023-03-07T19:19:04.313Z,51.53
2023-03-07T19:21:32.157Z,52.04
2023-03-07T19:24:01.616Z,51.72
2023-03-07T19:26:28.892Z,51.62
2023-03-07T19:28:59.880Z,51.59
2023-03-07T19:31:32.518Z,51.54
2023-03-07T19:34:03.246Z,51.62
2023-03-07T19:36:32.050Z,51.35
2023-03-07T19:38:59.361Z,51.46
2023-03-07T19:41:28.995Z,51.59
2023-03-07T19:43:58.010Z,51.76
2023-03-07T19:46:25.147Z,51.89
2023-03-07T19:48:52.061Z,51.09
2023-03-07T19:51:23.059Z,50.84
2023-03-07T19:53:51.999Z,50.85
2023-03-07T19:56:24.701Z,50.96
2023-03-07T19:58:51.859Z,50.84
2023-03-07T20:01:21.605Z,50.72
2023-03-07T20:03:50.747Z,50.36
2023-03-07T20:06:21.599Z,50.79
2023-03-07T20:08:51.023Z,50.62
2023-03-07T20:11:31.591Z,50.63
2023-03-07T20:14:03.472Z,50.70
2023-03-07T20:16:34.847Z,50.83
2023-03-07T20:19:06.172Z,50.78
2023-03-07T20:21:36.375Z,51.25
2023-03-07T20:24:04.488Z,51.48
2023-03-07T20:26:35.830Z,51.50
2023-03-07T20:29:07.313Z,51.35
2023-03-07T20:31:36.146Z,51.37
2023-03-07T20:34:03.629Z,51.70
2023-03-07T20:36:35.119Z,51.81
2023-03-07T20:39:08.053Z,51.83
2023-03-07T20:41:35.769Z,52.06
2023-03-07T20:44:06.554Z,52.04
2023-03-07T20:46:36.351Z,52.01
2023-03-07T20:49:04.733Z,52.04
2023-03-07T20:51:36.003Z,51.95
2023-03-07T20:54:08.219Z,52.21
2023-03-07T20:56:38.041Z,52.26
2023-03-07T20:59:07.644Z,52.58
2023-03-07T21:01:36.149Z,52.44
2023-03-07T21:04:10.451Z,52.36
2023-03-07T21:06:40.700Z,52.30
2023-03-07T21:09:10.333Z,52.51
2023-03-07T21:11:42.135Z,52.34
2023-03-07T21:14:11.632Z,52.38
2023-03-07T21:16:38.794Z,52.41
2023-03-07T21:19:07.374Z,52.22
2023-03-07T21:21:37.496Z,52.52
2023-03-07T21:24:05.687Z,52.33
2023-03-07T21:26:38.617Z,52.41
2023-03-07T21:29:05.425Z,52.31
2023-03-07T21:31:35.161Z,52.30
2023-03-07T21:34:07.039Z,52.16
2023-03-07T21:36:34.524Z,52.34
2023-03-07T21:39:10.404Z,52.22
2023-03-07T21:41:38.001Z,52.11
2023-03-07T21:44:06.185Z,51.78
2023-03-07T21:46:33.508Z,52.05
2023-03-07T21:49:01.731Z,51.96
2023-03-07T21:51:28.886Z,51.87
2023-03-07T21:53:55.673Z,51.63
2023-03-07T21:56:23.898Z,51.89
2023-03-07T21:58:51.186Z,51.97
2023-03-07T22:01:28.580Z,51.97
2023-03-07T22:03:58.898Z,51.86
2023-03-07T22:06:28.220Z,51.80
2023-03-07T22:08:55.409Z,51.89
2023-03-07T22:11:22.909Z,51.78
2023-03-07T22:13:50.486Z,51.84
2023-03-07T22:16:20.939Z,51.69
2023-03-07T22:18:57.275Z,51.60
2023-03-07T22:21:26.396Z,51.49
2023-03-07T22:24:01.327Z,51.63
2023-03-07T22:26:31.567Z,51.42
2023-03-07T22:28:59.525Z,51.64
2023-03-07T22:31:26.465Z,51.45
2023-03-07T22:33:53.705Z,51.59
2023-03-07T22:36:21.115Z,51.62
2023-03-07T22:38:52.567Z,51.57
2023-03-07T22:41:19.487Z,51.62
2023-03-07T22:43:47.008Z,51.69
2023-03-07T22:46:14.053Z,51.74
2023-03-07T22:48:41.200Z,51.72
2023-03-07T22:51:20.446Z,51.93
2023-03-07T22:53:48.205Z,51.95
2023-03-07T22:56:27.261Z,52.24
2023-03-07T22:58:54.348Z,52.27
2023-03-07T23:01:25.138Z,52.43
2023-03-07T23:03:56.698Z,52.36
2023-03-07T23:06:29.604Z,52.59
2023-03-07T23:08:59.542Z,52.38
2023-03-07T23:11:30.317Z,52.61
2023-03-07T23:13:58.425Z,52.69
2023-03-07T23:16:29.381Z,52.72
2023-03-07T23:18:58.538Z,52.54
2023-03-07T23:21:30.094Z,52.67
2023-03-07T23:23:57.994Z,52.73
2023-03-07T23:26:37.910Z,52.67
2023-03-07T23:29:07.053Z,52.83
2023-03-07T23:31:38.635Z,52.71
2023-03-07T23:34:16.565Z,52.70
2023-03-07T23:36:44.347Z,52.88
2023-03-07T23:39:11.630Z,53.01
2023-03-07T23:41:38.572Z,53.14
2023-03-07T23:44:05.732Z,53.07
2023-03-07T23:46:33.259Z,52.99
2023-03-07T23:49:00.068Z,52.95
2023-03-07T23:51:27.459Z,53.12
2023-03-07T23:53:54.524Z,53.16
2023-03-07T23:56:21.868Z,53.16
2023-03-07T23:58:53.004Z,53.29
